Time;durP1;ratioP1;P1;durP2;ratioP2;P2;SDS_P1;SDS_P2;PMS_P1;PMS_P2;Temp;Humidity;BMP_temperature;BMP_pressure;BME280_temperature;BME280_humidity;BME280_pressure;Samples;Min_cycle;Max_cycle;Signal;HPM_P1;HPM_P2
2023/11/20 00:01:34;;;;;;;20.40;3.13;;;;;;;14.29;84.76;100280.13;4945745;28;99397;-73
2023/11/20 00:04:02;;;;;;;18.58;2.70;;;;;;;14.14;85.51;100276.53;4950426;28;97174;-75
2023/11/20 00:06:30;;;;;;;14.15;3.17;;;;;;;14.29;84.78;100270.34;4950615;28;97110;-74
2023/11/20 00:08:57;;;;;;;13.75;2.67;;;;;;;14.43;84.43;100271.38;4947514;28;98919;-74
2023/11/20 00:11:24;;;;;;;12.45;2.72;;;;;;;14.32;84.84;100275.47;4948692;28;98803;-74
2023/11/20 00:13:51;;;;;;;15.80;2.70;;;;;;;14.34;84.88;100270.06;4951359;28;96695;-74
2023/11/20 00:16:18;;;;;;;11.18;2.45;;;;;;;14.35;84.51;100270.00;4945896;28;97588;-73
2023/11/20 00:18:44;;;;;;;13.63;2.95;;;;;;;14.48;84.11;100267.50;4947375;28;100145;-75
2023/11/20 00:21:13;;;;;;;19.45;2.85;;;;;;;14.15;85.70;100264.97;4945927;28;101433;-74
2023/11/20 00:23:39;;;;;;;18.80;3.08;;;;;;;14.23;85.63;100261.88;4947277;28;98867;-74
2023/11/20 00:26:11;;;;;;;18.27;2.97;;;;;;;14.32;85.20;100264.84;4950195;28;98910;-75
2023/11/20 00:28:38;;;;;;;15.18;3.45;;;;;;;14.31;84.88;100265.78;4948784;28;98907;-74
2023/11/20 00:31:05;;;;;;;21.40;3.08;;;;;;;14.23;85.31;100273.38;4949081;28;101074;-74
2023/11/20 00:33:33;;;;;;;15.40;2.53;;;;;;;14.37;84.71;100269.91;4950249;28;97623;-75
2023/11/20 00:35:59;;;;;;;17.63;2.90;;;;;;;14.36;84.05;100266.38;4949361;28;97085;-74
2023/11/20 00:38:27;;;;;;;17.10;3.15;;;;;;;14.39;84.07;100268.03;4948925;28;98112;-74
2023/11/20 00:40:54;;;;;;;19.45;3.63;;;;;;;14.21;84.26;100275.25;4947039;28;97467;-76
2023/11/20 00:43:20;;;;;;;15.73;3.00;;;;;;;14.18;84.97;100267.44;4950440;28;97187;-74
2023/11/20 00:45:47;;;;;;;11.82;2.95;;;;;;;14.29;84.47;100272.16;4949452;28;96846;-74
2023/11/20 00:48:16;;;;;;;12.95;2.58;;;;;;;14.48;83.40;100262.19;4949595;28;101074;-74
2023/11/20 00:50:43;;;;;;;13.23;2.53;;;;;;;14.47;83.62;100257.81;4948129;28;101302;-73
2023/11/20 00:53:09;;;;;;;18.35;3.63;;;;;;;14.46;83.57;100256.09;4948461;28;96993;-73
2023/11/20 00:55:37;;;;;;;18.63;2.50;;;;;;;14.50;82.97;100262.09;4949138;28;97102;-74
2023/11/20 00:58:03;;;;;;;18.48;2.67;;;;;;;14.47;82.89;100254.28;4940897;28;98212;-74
2023/11/20 01:00:30;;;;;;;13.80;2.63;;;;;;;14.68;82.26;100255.69;4945690;28;101288;-75
2023/11/20 01:02:56;;;;;;;15.50;2.88;;;;;;;14.60;82.50;100256.13;4949270;28;96769;-74
2023/11/20 01:05:23;;;;;;;15.57;2.65;;;;;;;14.66;81.98;100249.59;4948545;28;97029;-75
2023/11/20 01:07:50;;;;;;;14.35;2.92;;;;;;;14.73;81.91;100243.81;4947785;28;101526;-74
2023/11/20 01:10:16;;;;;;;17.90;2.78;;;;;;;14.78;81.42;100246.19;4945317;28;99156;-73
2023/11/20 01:12:44;;;;;;;12.05;2.15;;;;;;;14.63;81.63;100245.31;4943400;28;97873;-74
2023/11/20 01:15:11;;;;;;;10.45;2.70;;;;;;;14.71;81.51;100252.81;4946746;28;96947;-74
2023/11/20 01:17:37;;;;;;;13.85;3.10;;;;;;;14.48;82.23;100251.56;4948229;28;102084;-74
2023/11/20 01:20:05;;;;;;;11.88;2.47;;;;;;;14.59;81.86;100242.91;4951587;28;98793;-74
2023/11/20 01:22:32;;;;;;;15.52;2.80;;;;;;;14.52;82.52;100252.22;4953004;28;98276;-73
2023/11/20 01:24:58;;;;;;;13.40;2.72;;;;;;;14.27;83.55;100250.13;4935011;28;96910;-74
2023/11/20 01:27:25;;;;;;;11.27;2.35;;;;;;;14.16;84.13;100247.22;4942256;28;101132;-72
2023/11/20 01:29:52;;;;;;;13.30;1.95;;;;;;;14.30;83.71;100252.59;4950034;28;99238;-74
2023/11/20 01:32:19;;;;;;;13.68;2.05;;;;;;;14.35;83.78;100250.53;4957283;28;97235;-74
2023/11/20 01:34:44;;;;;;;13.45;2.50;;;;;;;14.33;83.45;100255.06;4949842;28;96694;-74
2023/11/20 01:37:11;;;;;;;;;;;;;;;14.44;83.06;100244.69;4941254;28;99401;-74
2023/11/20 01:39:37;;;;;;;14.13;2.47;;;;;;;14.71;81.71;100251.00;4953974;28;101385;-74
2023/11/20 01:42:04;;;;;;;11.20;2.03;;;;;;;14.55;81.56;100249.38;4938058;28;97984;-74
2023/11/20 01:44:31;;;;;;;7.65;1.70;;;;;;;14.48;82.52;100248.88;4955682;28;96938;-74
2023/11/20 01:47:02;;;;;;;8.38;2.03;;;;;;;14.75;81.07;100247.25;4942017;28;101256;-73
2023/11/20 01:49:30;;;;;;;10.95;1.77;;;;;;;14.65;81.40;100239.91;4947623;28;99596;-75
2023/11/20 01:51:58;;;;;;;12.40;2.45;;;;;;;14.45;82.12;100240.22;4939813;28;96778;-74
2023/11/20 01:54:25;;;;;;;11.98;1.83;;;;;;;14.63;81.76;100240.00;4939217;28;96941;-74
2023/11/20 01:56:52;;;;;;;10.85;2.42;;;;;;;14.68;81.26;100240.59;4962092;28;98314;-75
2023/11/20 01:59:20;;;;;;;9.57;2.25;;;;;;;14.60;81.78;100237.53;4948670;28;100049;-73
2023/11/20 02:01:47;;;;;;;7.72;1.83;;;;;;;14.43;81.87;100235.03;4949108;28;96848;-74
2023/11/20 02:04:15;;;;;;;9.25;1.88;;;;;;;14.55;81.66;100233.44;4949064;28;97576;-73
2023/11/20 02:06:42;;;;;;;7.30;2.10;;;;;;;14.66;81.74;100233.63;4941492;28;99157;-73
2023/11/20 02:09:09;;;;;;;10.77;2.40;;;;;;;14.51;81.96;100227.41;4957103;28;99696;-74
2023/11/20 02:11:36;;;;;;;11.27;2.70;;;;;;;14.50;81.99;100231.06;4956136;28;96679;-74
2023/11/20 02:14:03;;;;;;;13.63;1.88;;;;;;;14.28;83.32;100228.78;4960423;28;96921;-73
2023/11/20 02:16:30;;;;;;;8.55;1.95;;;;;;;14.36;83.18;100223.00;4949070;28;99295;-73
2023/11/20 02:18:56;;;;;;;14.30;2.17;;;;;;;14.28;83.80;100226.13;4949178;28;99815;-72
2023/11/20 02:21:24;;;;;;;9.68;2.22;;;;;;;14.28;83.75;100217.28;4947831;28;97672;-73
2023/11/20 02:23:51;;;;;;;10.90;1.35;;;;;;;14.36;83.67;100215.03;4948947;28;96884;-73
2023/11/20 02:26:37;;;;;;;10.10;1.92;;;;;;;14.27;83.65;100215.56;4946821;28;99344;-74
2023/11/20 02:29:11;;;;;;;7.43;1.40;;;;;;;14.24;83.55;100203.31;4951703;28;101249;-73
2023/11/20 02:31:39;;;;;;;8.40;1.63;;;;;;;14.36;83.38;100209.72;4951354;28;96735;-73
2023/11/20 02:34:07;;;;;;;11.23;2.05;;;;;;;14.25;84.10;100204.16;4951707;28;96885;-74
2023/11/20 02:36:33;;;;;;;13.00;3.40;;;;;;;14.19;84.29;100208.03;4946283;28;98928;-73
2023/11/20 02:39:01;;;;;;;15.20;2.65;;;;;;;14.18;84.48;100205.47;4950363;28;98810;-73
2023/11/20 02:41:27;;;;;;;5.20;1.45;;;;;;;14.38;83.31;100206.97;4950031;28;96848;-72
2023/11/20 02:43:54;;;;;;;11.15;2.08;;;;;;;14.22;84.08;100196.38;4943836;28;100406;-73
2023/11/20 02:46:20;;;;;;;12.77;1.90;;;;;;;14.14;84.72;100193.31;4949046;28;98983;-74
2023/11/20 02:48:48;;;;;;;6.32;1.77;;;;;;;14.26;84.19;100200.56;4948347;28;98794;-73
2023/11/20 02:51:14;;;;;;;9.38;1.40;;;;;;;14.29;83.91;100189.75;4950133;28;97808;-73
2023/11/20 02:53:40;;;;;;;8.43;1.58;;;;;;;14.36;83.68;100191.13;4952096;28;96925;-74
2023/11/20 02:56:08;;;;;;;5.45;1.23;;;;;;;14.55;82.62;100189.09;4950133;28;98787;-74
2023/11/20 02:58:34;;;;;;;9.00;1.58;;;;;;;14.44;83.17;100186.19;4948208;28;98875;-73
2023/11/20 03:01:00;;;;;;;9.98;1.52;;;;;;;14.42;83.03;100190.78;4946733;28;96792;-74
2023/11/20 03:03:27;;;;;;;9.75;1.88;;;;;;;14.49;82.79;100186.81;4950071;28;97176;-75
2023/11/20 03:05:55;;;;;;;9.38;1.30;;;;;;;14.52;82.53;100188.41;4950521;28;97985;-73
2023/11/20 03:08:22;;;;;;;6.63;1.30;;;;;;;14.38;83.16;100183.06;4947268;28;98031;-73
2023/11/20 03:10:49;;;;;;;6.60;1.33;;;;;;;14.57;82.58;100179.19;4949491;28;96881;-74
2023/11/20 03:13:15;;;;;;;4.15;1.15;;;;;;;14.63;82.27;100178.84;4950455;28;96857;-73
2023/11/20 03:15:42;;;;;;;6.95;1.85;;;;;;;14.46;82.81;100179.00;4950859;28;98258;-73
2023/11/20 03:18:08;;;;;;;5.88;1.40;;;;;;;14.55;83.05;100174.94;4948299;28;99770;-73
2023/11/20 03:20:35;;;;;;;6.63;1.25;;;;;;;14.64;82.51;100172.56;4948813;28;98525;-73
2023/11/20 03:23:02;;;;;;;6.18;1.50;;;;;;;14.58;82.27;100175.59;4948995;28;97010;-74
2023/11/20 03:25:29;;;;;;;6.00;1.80;;;;;;;14.57;82.33;100165.91;4949102;28;99346;-74
2023/11/20 03:27:55;;;;;;;3.65;1.15;;;;;;;14.46;82.99;100175.47;4940868;28;98876;-74
2023/11/20 03:30:22;;;;;;;3.25;1.15;;;;;;;14.40;82.94;100178.50;4950931;28;96754;-73
2023/11/20 03:32:48;;;;;;;8.00;1.50;;;;;;;14.61;82.79;100180.75;4950862;28;96810;-74
2023/11/20 03:35:14;;;;;;;5.07;1.27;;;;;;;14.52;82.97;100178.63;4945015;28;98946;-74
2023/11/20 03:37:40;;;;;;;;;;;;;;;14.39;84.12;100172.34;4942509;28;98846;-73
2023/11/20 03:40:09;;;;;;;4.35;0.90;;;;;;;14.40;83.85;100174.06;4950356;28;98383;-73
2023/11/20 03:42:36;;;;;;;9.38;1.92;;;;;;;14.31;84.10;100167.44;4947049;28;97590;-73
2023/11/20 03:45:02;;;;;;;6.63;1.20;;;;;;;14.25;84.53;100169.63;4944085;28;98274;-73
2023/11/20 03:47:29;;;;;;;7.07;1.23;;;;;;;14.36;84.20;100167.19;4950363;28;98851;-73
2023/11/20 03:49:55;;;;;;;4.80;1.38;;;;;;;14.43;83.66;100167.72;4949665;28;97466;-74
2023/11/20 03:52:21;;;;;;;4.18;1.48;;;;;;;14.63;83.18;100165.56;4947668;28;96857;-74
2023/11/20 03:54:48;;;;;;;2.67;1.25;;;;;;;14.44;83.25;100159.63;4949930;28;98932;-73
2023/11/20 03:57:16;;;;;;;3.50;1.48;;;;;;;14.65;82.72;100162.78;4949193;28;99262;-73
2023/11/20 03:59:42;;;;;;;3.60;1.02;;;;;;;14.41;83.56;100162.47;4950616;28;96680;-74
2023/11/20 04:02:09;;;;;;;6.20;1.20;;;;;;;14.48;83.69;100158.50;4948949;28;96847;-73
2023/11/20 04:04:35;;;;;;;4.60;1.23;;;;;;;14.60;83.22;100155.09;4948803;28;99028;-73
2023/11/20 04:07:02;;;;;;;8.57;1.63;;;;;;;14.52;83.65;100145.88;4949253;28;99008;-73
2023/11/20 04:09:28;;;;;;;8.18;1.35;;;;;;;14.31;84.36;100143.53;4949560;28;96797;-74
2023/11/20 04:11:54;;;;;;;6.10;1.40;;;;;;;14.52;83.61;100141.41;4939739;28;96911;-73
2023/11/20 04:14:22;;;;;;;4.85;1.58;;;;;;;14.32;84.19;100141.72;4947993;28;99097;-73
2023/11/20 04:16:49;;;;;;;6.57;2.33;;;;;;;14.30;83.98;100141.00;4949865;28;98981;-74
2023/11/20 04:19:15;;;;;;;6.28;1.63;;;;;;;14.58;83.19;100137.50;4950131;28;96838;-74
2023/11/20 04:21:42;;;;;;;5.35;1.33;;;;;;;14.49;83.87;100143.41;4948214;28;99716;-73
2023/11/20 04:24:09;;;;;;;6.05;1.52;;;;;;;14.42;84.06;100145.59;4957434;28;99042;-73
2023/11/20 04:26:36;;;;;;;5.68;1.20;;;;;;;14.41;84.16;100141.22;4963410;28;98958;-73
2023/11/20 04:29:02;;;;;;;8.43;1.45;;;;;;;14.29;84.04;100133.97;4947018;28;96880;-74
2023/11/20 04:31:30;;;;;;;8.25;2.22;;;;;;;14.30;84.82;100131.22;4965970;28;96804;-74
2023/11/20 04:33:56;;;;;;;3.95;1.10;;;;;;;14.34;84.27;100126.56;4944734;28;98996;-74
2023/11/20 04:36:23;;;;;;;7.63;1.42;;;;;;;14.46;84.30;100122.31;4958516;28;98936;-73
2023/11/20 04:38:49;;;;;;;5.78;1.75;;;;;;;14.33;84.58;100124.84;4947448;28;96702;-74
2023/11/20 04:41:16;;;;;;;5.53;1.10;;;;;;;14.56;83.27;100131.47;4949976;28;96864;-74
2023/11/20 04:43:42;;;;;;;7.13;1.05;;;;;;;14.45;83.81;100124.13;4957939;28;98879;-74
2023/11/20 04:46:10;;;;;;;5.75;1.40;;;;;;;14.32;84.22;100123.97;4953831;28;100976;-74
2023/11/20 04:48:38;;;;;;;3.58;0.95;;;;;;;14.50;84.03;100111.44;4950678;28;96788;-74
2023/11/20 04:51:05;;;;;;;3.50;0.80;;;;;;;14.55;83.21;100113.78;4939867;28;96846;-74
2023/11/20 04:53:31;;;;;;;7.10;1.30;;;;;;;14.64;83.49;100118.53;4947605;28;98894;-74
2023/11/20 04:55:58;;;;;;;4.07;1.45;;;;;;;14.52;83.62;100108.66;4948123;28;101096;-74
2023/11/20 04:58:24;;;;;;;3.85;1.10;;;;;;;14.24;84.47;100099.66;4948682;28;96851;-74
2023/11/20 05:00:51;;;;;;;5.85;1.50;;;;;;;14.63;83.16;100101.75;4942580;28;96780;-74
2023/11/20 05:03:17;;;;;;;4.57;1.15;;;;;;;14.64;83.35;100092.78;4948126;28;98624;-74
2023/11/20 05:05:46;;;;;;;4.85;1.30;;;;;;;14.71;82.81;100099.44;4947208;28;99211;-73
2023/11/20 05:08:12;;;;;;;5.15;1.00;;;;;;;14.70;82.74;100097.72;4944333;28;96762;-74
2023/11/20 05:10:39;;;;;;;4.55;1.52;;;;;;;14.64;82.68;100099.91;4935941;28;96915;-74
2023/11/20 05:13:05;;;;;;;2.22;1.10;;;;;;;14.54;82.77;100102.31;4943438;28;99199;-74
2023/11/20 05:15:32;;;;;;;6.85;1.90;;;;;;;14.58;82.96;100109.13;4946044;28;98844;-74
2023/11/20 05:17:58;;;;;;;5.28;1.20;;;;;;;14.67;82.26;100108.56;4945948;28;97362;-74
2023/11/20 05:20:25;;;;;;;3.50;1.08;;;;;;;14.51;82.84;100107.78;4959260;28;96781;-73
2023/11/20 05:22:53;;;;;;;6.32;1.45;;;;;;;14.52;83.19;100108.66;4937373;28;98899;-73
2023/11/20 05:25:20;;;;;;;2.78;1.02;;;;;;;14.45;83.04;100108.16;4943614;28;97676;-73
2023/11/20 05:27:46;;;;;;;5.07;1.42;;;;;;;14.66;82.61;100117.50;4946101;28;97593;-73
2023/11/20 05:30:13;;;;;;;7.90;1.73;;;;;;;14.84;81.82;100115.47;4949059;28;96903;-73
2023/11/20 05:32:40;;;;;;;4.10;1.50;;;;;;;14.88;82.00;100105.50;4948089;28;98151;-74
2023/11/20 05:35:07;;;;;;;4.45;1.20;;;;;;;14.58;83.14;100110.94;4950335;28;98766;-74
2023/11/20 05:37:34;;;;;;;4.53;1.35;;;;;;;14.92;81.62;100109.69;4948707;28;96934;-74
2023/11/20 05:40:03;;;;;;;4.18;1.63;;;;;;;14.70;82.05;100113.69;4946682;28;98921;-74
2023/11/20 05:42:29;;;;;;;4.47;1.85;;;;;;;14.62;82.29;100109.81;4948248;28;98885;-74
2023/11/20 05:44:55;;;;;;;8.85;1.75;;;;;;;14.72;82.75;100114.44;4949052;28;98851;-74
2023/11/20 05:47:22;;;;;;;4.13;1.50;;;;;;;14.56;83.16;100105.72;4948485;28;97173;-74
2023/11/20 05:49:51;;;;;;;3.40;1.60;;;;;;;14.82;81.86;100111.22;4946267;28;96969;-74
2023/11/20 05:52:18;;;;;;;2.15;1.20;;;;;;;14.63;82.11;100109.72;4946517;28;98898;-74
2023/11/20 05:54:44;;;;;;;3.80;1.42;;;;;;;14.59;82.81;100109.97;4948969;28;98814;-73
2023/11/20 05:57:12;;;;;;;3.13;1.20;;;;;;;14.77;82.25;100109.69;4948749;28;96743;-74
2023/11/20 05:59:38;;;;;;;2.00;1.30;;;;;;;14.72;82.50;100116.25;4948001;28;96791;-74
2023/11/20 06:02:05;;;;;;;2.60;1.45;;;;;;;14.90;82.05;100115.09;4948551;28;101899;-74
2023/11/20 06:04:32;;;;;;;5.22;1.60;;;;;;;14.79;82.01;100120.25;4951773;28;98278;-74
2023/11/20 06:06:58;;;;;;;2.40;1.33;;;;;;;14.96;81.42;100120.03;4952377;28;97148;-74
2023/11/20 06:09:25;;;;;;;3.78;1.20;;;;;;;14.93;81.64;100119.38;4940837;28;96798;-74
2023/11/20 06:11:52;;;;;;;3.45;1.40;;;;;;;14.73;82.41;100123.28;4948002;28;99693;-74
2023/11/20 06:14:19;;;;;;;5.95;1.65;;;;;;;14.65;83.13;100126.41;4947537;28;98838;-75
2023/11/20 06:16:47;;;;;;;5.55;1.70;;;;;;;14.67;82.72;100124.53;4944741;28;97902;-73
2023/11/20 06:19:13;;;;;;;4.57;1.80;;;;;;;14.55;83.77;100130.59;4955835;28;96774;-73
2023/11/20 06:21:45;;;;;;;3.00;1.70;;;;;;;14.82;82.75;100125.38;4949767;28;101363;-74
2023/11/20 06:24:12;;;;;;;3.75;1.42;;;;;;;14.83;82.09;100128.91;4947855;28;101155;-75
2023/11/20 06:26:40;;;;;;;2.45;1.55;;;;;;;14.67;82.53;100126.31;4950114;28;98978;-74
2023/11/20 06:29:07;;;;;;;5.45;1.38;;;;;;;14.80;82.80;100129.06;4952795;28;97465;-74
2023/11/20 06:31:35;;;;;;;3.67;1.40;;;;;;;14.52;83.16;100129.91;4947184;28;99197;-73
2023/11/20 06:34:01;;;;;;;4.35;1.45;;;;;;;14.98;82.03;100135.88;4945737;28;98864;-74
2023/11/20 06:36:27;;;;;;;3.78;1.38;;;;;;;15.02;81.64;100145.41;4946095;28;97271;-74
2023/11/20 06:38:54;;;;;;;4.55;1.77;;;;;;;14.74;82.12;100147.13;4950030;28;97020;-75
2023/11/20 06:41:21;;;;;;;9.13;1.85;;;;;;;14.81;81.93;100138.75;4949738;28;99481;-74
2023/11/20 06:43:47;;;;;;;11.32;1.90;;;;;;;14.59;82.87;100142.75;4949518;28;98033;-74
2023/11/20 06:46:16;;;;;;;10.55;1.98;;;;;;;14.65;82.94;100152.16;4950084;28;96973;-74
2023/11/20 06:48:44;;;;;;;17.60;1.90;;;;;;;15.01;81.66;100147.22;4949747;28;96962;-74
2023/11/20 06:51:12;;;;;;;4.25;2.00;;;;;;;14.95;81.91;100152.91;4949460;28;102229;-73
2023/11/20 06:53:39;;;;;;;4.35;1.83;;;;;;;15.00;81.71;100157.94;4951101;28;98783;-73
2023/11/20 06:56:06;;;;;;;12.18;3.53;;;;;;;15.28;80.47;100152.59;4947368;28;97599;-75
2023/11/20 06:58:34;;;;;;;8.77;2.25;;;;;;;15.10;81.10;100161.72;4949358;28;97011;-74
2023/11/20 07:01:03;;;;;;;4.90;2.90;;;;;;;15.02;81.21;100158.72;4957645;28;98944;-74
2023/11/20 07:03:29;;;;;;;3.70;1.67;;;;;;;15.15;80.81;100157.84;4944340;28;98963;-73
2023/11/20 07:05:58;;;;;;;7.78;1.92;;;;;;;14.99;81.59;100161.53;4946526;28;97261;-73
2023/11/20 07:08:25;;;;;;;3.03;2.00;;;;;;;15.25;80.93;100159.91;4946721;28;96897;-74
2023/11/20 07:10:52;;;;;;;2.22;1.80;;;;;;;15.10;81.42;100164.38;4950464;28;99688;-73
2023/11/20 07:13:18;;;;;;;2.90;1.88;;;;;;;15.02;81.59;100164.88;4949967;28;98897;-73
2023/11/20 07:15:45;;;;;;;2.38;1.70;;;;;;;14.82;82.83;100167.06;4950018;28;96836;-75
2023/11/20 07:18:11;;;;;;;3.90;1.80;;;;;;;14.96;82.74;100169.75;4945525;28;96810;-74
2023/11/20 07:20:37;;;;;;;2.63;1.60;;;;;;;14.88;82.73;100172.88;4949675;28;99260;-74
2023/11/20 07:23:05;;;;;;;6.32;2.13;;;;;;;14.86;83.45;100172.09;4950295;28;99568;-73
2023/11/20 07:25:33;;;;;;;2.42;1.50;;;;;;;14.88;83.02;100169.34;4949355;28;97867;-73
2023/11/20 07:28:00;;;;;;;4.22;2.65;;;;;;;15.24;81.18;100169.69;4951066;28;96937;-73
2023/11/20 07:30:26;;;;;;;4.47;2.08;;;;;;;15.15;82.04;100171.16;4947467;28;98924;-74
2023/11/20 07:32:55;;;;;;;3.25;1.70;;;;;;;15.24;81.83;100167.03;4948461;28;99320;-74
2023/11/20 07:35:21;;;;;;;4.18;1.42;;;;;;;15.18;82.13;100161.22;4951204;28;96788;-75
2023/11/20 07:37:47;;;;;;;3.08;1.60;;;;;;;15.13;82.54;100169.53;4950852;28;97206;-73
2023/11/20 07:40:15;;;;;;;8.10;1.63;;;;;;;15.24;82.02;100167.03;4948192;28;99469;-74
2023/11/20 07:42:42;;;;;;;2.97;1.60;;;;;;;15.29;81.66;100170.28;4948296;28;99130;-74
2023/11/20 07:45:10;;;;;;;4.18;2.15;;;;;;;15.29;81.20;100170.28;4949410;28;96746;-73
2023/11/20 07:47:37;;;;;;;2.00;1.48;;;;;;;15.24;81.79;100171.50;4949538;28;96788;-73
2023/11/20 07:50:04;;;;;;;3.13;1.63;;;;;;;15.29;81.77;100172.94;4949705;28;98632;-73
2023/11/20 07:52:31;;;;;;;3.28;2.08;;;;;;;15.25;81.87;100168.72;4944303;28;99255;-74
2023/11/20 07:54:58;;;;;;;3.75;2.10;;;;;;;15.31;81.89;100179.00;4947957;28;97128;-75
2023/11/20 07:57:25;;;;;;;2.97;2.00;;;;;;;15.36;81.87;100176.06;4949638;28;96785;-74
2023/11/20 07:59:53;;;;;;;3.88;1.70;;;;;;;15.28;81.91;100179.19;4944479;28;99552;-75
2023/11/20 08:02:19;;;;;;;2.88;1.90;;;;;;;15.20;81.77;100180.63;4944976;28;98774;-76
2023/11/20 08:04:46;;;;;;;2.22;2.03;;;;;;;15.45;81.34;100181.63;4948590;28;97301;-74
2023/11/20 08:07:13;;;;;;;2.05;1.85;;;;;;;15.43;81.27;100182.66;4948997;28;96872;-74
2023/11/20 08:09:40;;;;;;;2.17;1.98;;;;;;;15.30;81.73;100189.72;4948216;28;98895;-74
2023/11/20 08:12:07;;;;;;;4.05;2.15;;;;;;;15.51;81.77;100188.34;4938017;28;99011;-74
2023/11/20 08:14:35;;;;;;;3.17;2.25;;;;;;;15.40;81.68;100190.88;4934686;28;98966;-74
2023/11/20 08:17:02;;;;;;;9.40;2.72;;;;;;;15.54;81.26;100186.41;4932615;28;97568;-74
2023/11/20 08:19:28;;;;;;;4.30;2.15;;;;;;;15.49;81.02;100193.78;4933541;28;102072;-74
2023/11/20 08:21:55;;;;;;;5.15;1.92;;;;;;;15.47;81.28;100190.38;4931352;28;98598;-74
2023/11/20 08:24:21;;;;;;;5.03;2.20;;;;;;;15.29;82.16;100202.22;4936895;28;97013;-75
2023/11/20 08:26:48;;;;;;;4.57;2.17;;;;;;;15.42;81.82;100200.47;4949886;28;96983;-74
2023/11/20 08:29:16;;;;;;;2.60;2.40;;;;;;;15.43;81.74;100196.84;4940341;28;97836;-74
2023/11/20 08:31:43;;;;;;;3.78;2.65;;;;;;;15.45;81.65;100205.59;4944505;28;97697;-74
2023/11/20 08:34:10;;;;;;;4.00;2.70;;;;;;;15.38;82.33;100204.28;4946341;28;96999;-74
2023/11/20 08:36:37;;;;;;;6.47;3.13;;;;;;;15.43;81.10;100194.16;4953200;28;100346;-73
2023/11/20 08:39:06;;;;;;;5.57;2.58;;;;;;;15.67;81.14;100198.91;4940163;28;98844;-73
2023/11/20 08:41:32;;;;;;;7.18;3.22;;;;;;;15.85;80.62;100203.03;4946486;28;101669;-73
2023/11/20 08:43:59;;;;;;;9.60;4.38;;;;;;;15.73;80.09;100206.50;4946373;28;98766;-74
2023/11/20 08:46:26;;;;;;;13.13;3.60;;;;;;;15.63;81.37;100208.03;4948654;28;98745;-74
2023/11/20 08:48:54;;;;;;;7.93;3.20;;;;;;;15.58;81.03;100203.03;4937927;28;98917;-74
2023/11/20 08:51:20;;;;;;;11.73;3.38;;;;;;;15.73;81.12;100199.38;4948854;28;98901;-74
2023/11/20 08:53:46;;;;;;;4.65;3.40;;;;;;;15.82;80.71;100200.56;4948033;28;96761;-75
2023/11/20 08:56:13;;;;;;;8.95;3.45;;;;;;;15.89;80.06;100208.06;4947552;28;96873;-74
2023/11/20 08:58:39;;;;;;;7.53;4.22;;;;;;;15.73;80.71;100204.69;4938993;28;98832;-75
2023/11/20 09:01:06;;;;;;;5.78;3.38;;;;;;;15.86;80.28;100210.06;4949854;28;98956;-73
2023/11/20 09:03:32;;;;;;;8.98;3.58;;;;;;;15.67;81.07;100210.44;4935251;28;97403;-74
2023/11/20 09:06:00;;;;;;;7.57;4.93;;;;;;;16.01;80.55;100213.56;4946031;28;99626;-74
2023/11/20 09:08:26;;;;;;;8.18;4.13;;;;;;;15.97;79.52;100199.56;4944141;28;99205;-75
2023/11/20 09:10:53;;;;;;;7.30;4.97;;;;;;;16.12;79.30;100201.22;4939984;28;99032;-75
2023/11/20 09:13:19;;;;;;;6.88;5.15;;;;;;;15.81;80.22;100193.56;4941206;28;97504;-75
2023/11/20 09:15:46;;;;;;;7.18;5.25;;;;;;;16.06;79.89;100206.94;4944238;28;96924;-75
2023/11/20 09:18:12;;;;;;;6.72;4.97;;;;;;;16.14;78.93;100201.13;4941740;28;99179;-74
2023/11/20 09:20:39;;;;;;;5.22;4.72;;;;;;;16.14;79.09;100209.97;4944185;28;99013;-74
2023/11/20 09:23:07;;;;;;;6.63;4.80;;;;;;;16.39;77.81;100211.84;4946407;28;96960;-74
2023/11/20 09:25:34;;;;;;;8.90;4.50;;;;;;;16.19;78.48;100213.19;4947703;28;97766;-74
2023/11/20 09:28:00;;;;;;;8.55;4.55;;;;;;;16.14;78.50;100217.09;4939124;28;99227;-75
2023/11/20 09:30:27;;;;;;;5.57;3.22;;;;;;;16.26;77.80;100214.47;4947017;28;97839;-74
2023/11/20 09:32:53;;;;;;;6.13;3.63;;;;;;;16.31;77.71;100211.50;4941534;28;96664;-74
2023/11/20 09:35:21;;;;;;;6.93;3.40;;;;;;;16.16;78.35;100213.38;4946035;28;96830;-74
2023/11/20 09:37:48;;;;;;;5.10;3.40;;;;;;;16.34;78.02;100214.78;4943635;28;99039;-75
2023/11/20 09:40:16;;;;;;;6.20;4.32;;;;;;;16.44;77.22;100208.84;4944237;28;99069;-75
2023/11/20 09:42:43;;;;;;;5.45;4.03;;;;;;;16.58;76.82;100212.28;4948426;28;96749;-74
2023/11/20 09:45:27;;;;;;;5.45;4.88;;;;;;;16.52;76.74;100212.69;4945837;28;97044;-73
2023/11/20 09:47:54;;;;;;;23.40;5.32;;;;;;;16.50;76.78;100213.75;4941559;28;99151;-76
2023/11/20 09:50:24;;;;;;;8.43;5.78;;;;;;;16.19;77.83;100209.66;4939423;28;98806;-74
2023/11/20 09:52:52;;;;;;;10.60;6.50;;;;;;;16.81;75.23;100207.19;4943320;28;98643;-75
2023/11/20 09:55:20;;;;;;;9.38;6.13;;;;;;;16.56;76.17;100210.66;4941777;28;97098;-74
2023/11/20 09:57:48;;;;;;;10.43;6.68;;;;;;;16.72;75.68;100211.38;4939122;28;99352;-73
2023/11/20 10:00:17;;;;;;;10.10;7.43;;;;;;;17.01;74.08;100211.97;4945380;28;99590;-76
2023/11/20 10:02:45;;;;;;;16.75;5.63;;;;;;;16.92;74.00;100210.84;4946931;28;96794;-75
2023/11/20 10:05:12;;;;;;;7.22;4.30;;;;;;;16.77;74.66;100217.22;4931868;28;97300;-73
2023/11/20 10:07:40;;;;;;;3.67;3.00;;;;;;;16.69;74.79;100211.56;4944618;28;102275;-74
2023/11/20 10:10:08;;;;;;;4.45;3.15;;;;;;;16.72;75.08;100204.22;4943420;28;99745;-75
2023/11/20 10:12:37;;;;;;;7.05;3.08;;;;;;;16.67;74.53;100209.00;4944151;28;97023;-74
2023/11/20 10:15:06;;;;;;;8.38;3.05;;;;;;;16.45;74.90;100205.22;4939386;28;96945;-74
2023/11/20 10:17:36;;;;;;;2.20;2.00;;;;;;;16.42;74.55;100198.28;4930934;28;99860;-75
2023/11/20 10:20:09;;;;;;;6.80;2.20;;;;;;;16.38;75.05;100207.44;4931645;28;101824;-75
2023/11/20 10:22:35;;;;;;;2.78;1.60;;;;;;;16.39;75.28;100200.31;4929380;28;97519;-74
2023/11/20 10:25:05;;;;;;;3.80;1.98;;;;;;;16.46;75.26;100201.59;4932885;28;99690;-75
2023/11/20 10:27:32;;;;;;;2.53;1.77;;;;;;;16.50;75.03;100203.09;4936194;28;97741;-75
2023/11/20 10:29:59;;;;;;;4.25;2.08;;;;;;;16.59;75.25;100202.47;4947535;28;100972;-74
2023/11/20 10:32:27;;;;;;;5.47;2.00;;;;;;;16.45;76.03;100207.88;4945130;28;97059;-74
2023/11/20 10:35:12;;;;;;;2.70;2.40;;;;;;;17.00;74.21;100203.13;4943489;28;96937;-74
2023/11/20 10:37:52;;;;;;;2.58;2.25;;;;;;;16.81;73.77;100200.03;4939214;28;98223;-74
2023/11/20 10:40:18;;;;;;;2.13;2.00;;;;;;;16.61;74.94;100197.91;4940021;28;99247;-74
2023/11/20 10:42:45;;;;;;;2.08;1.95;;;;;;;16.46;74.84;100207.78;4941206;28;96885;-75
2023/11/20 10:45:13;;;;;;;4.78;2.08;;;;;;;16.55;74.49;100201.81;4943502;28;97188;-74
2023/11/20 10:47:40;;;;;;;7.05;2.00;;;;;;;16.44;75.25;100196.38;4945573;28;99339;-74
2023/11/20 10:50:11;;;;;;;2.60;1.52;;;;;;;16.60;73.96;100193.53;4951878;28;99380;-74
2023/11/20 10:52:41;;;;;;;3.17;1.60;;;;;;;16.65;74.21;100194.94;4947595;28;96896;-73
2023/11/20 10:55:11;;;;;;;3.13;1.90;;;;;;;16.77;74.33;100187.03;4946574;28;97655;-74
2023/11/20 10:57:39;;;;;;;2.97;1.77;;;;;;;16.81;73.80;100199.19;4950185;28;98932;-73
2023/11/20 11:00:10;;;;;;;2.63;1.88;;;;;;;16.78;72.74;100188.75;4948058;28;98945;-74
2023/11/20 11:02:39;;;;;;;6.18;1.70;;;;;;;16.54;73.50;100185.94;4939560;28;98776;-75
2023/11/20 11:05:08;;;;;;;2.90;1.40;;;;;;;16.20;74.31;100195.38;4945077;28;97804;-74
2023/11/20 11:07:38;;;;;;;5.38;1.70;;;;;;;16.31;74.54;100198.16;4946065;28;99125;-74
2023/11/20 11:10:10;;;;;;;8.82;2.35;;;;;;;16.22;75.30;100209.44;4946951;28;100665;-74
2023/11/20 11:12:40;;;;;;;4.93;1.75;;;;;;;16.22;74.35;100199.63;4947121;28;97496;-74
2023/11/20 11:15:07;;;;;;;8.93;2.17;;;;;;;16.23;75.41;100201.34;4950044;28;97123;-74
2023/11/20 11:17:44;;;;;;;4.82;2.42;;;;;;;15.98;77.36;100201.28;4949495;28;99529;-74
2023/11/20 11:20:14;;;;;;;5.00;2.08;;;;;;;16.21;77.09;100205.91;4941323;28;99827;-74
2023/11/20 11:22:43;;;;;;;10.93;2.58;;;;;;;16.33;75.86;100202.44;4949515;28;97379;-74